createdAt,value
2022-07-29T00:01:09.491Z,6.97
2022-07-29T00:03:51.931Z,6.75
2022-07-29T00:06:22.637Z,7.32
2022-07-29T00:08:57.585Z,7.07
2022-07-29T00:11:24.950Z,6.85
2022-07-29T00:13:52.153Z,7.00
2022-07-29T00:16:19.461Z,7.03
2022-07-29T00:18:47.003Z,6.93
2022-07-29T00:21:14.058Z,6.93
2022-07-29T00:23:41.355Z,6.50
2022-07-29T00:26:08.784Z,7.68
2022-07-29T00:28:36.207Z,7.05
2022-07-29T00:31:12.181Z,7.38
2022-07-29T00:33:40.407Z,6.32
2022-07-29T00:36:07.868Z,6.03
2022-07-29T00:38:35.076Z,6.47
2022-07-29T00:41:02.419Z,6.05
2022-07-29T00:43:29.537Z,6.47
2022-07-29T00:45:56.699Z,5.95
2022-07-29T00:48:24.082Z,5.95
2022-07-29T00:50:52.594Z,6.38
2022-07-29T00:53:21.491Z,6.75
2022-07-29T00:56:04.352Z,5.25
2022-07-29T00:58:33.496Z,6.55
2022-07-29T01:01:04.627Z,6.82
2022-07-29T01:03:31.839Z,6.30
2022-07-29T01:05:59.769Z,7.35
2022-07-29T01:08:27.059Z,7.45
2022-07-29T01:10:55.365Z,6.32
2022-07-29T01:13:28.964Z,6.07
2022-07-29T01:16:21.096Z,6.97
2022-07-29T01:18:56.087Z,7.20
2022-07-29T01:21:42.370Z,6.25
2022-07-29T01:24:27.224Z,6.35
2022-07-29T01:27:16.861Z,6.10
2022-07-29T01:29:53.716Z,6.55
2022-07-29T01:32:28.760Z,6.20
2022-07-29T01:35:03.225Z,6.68
2022-07-29T01:37:52.653Z,6.70
2022-07-29T01:40:52.467Z,7.03
2022-07-29T01:43:34.182Z,6.15
2022-07-29T01:46:10.381Z,6.55
2022-07-29T01:48:46.959Z,6.30
2022-07-29T01:51:28.356Z,6.95
2022-07-29T01:54:09.751Z,6.10
2022-07-29T01:56:39.559Z,6.07
2022-07-29T01:59:09.581Z,5.72
2022-07-29T02:01:49.770Z,6.13
2022-07-29T02:04:29.746Z,6.65
2022-07-29T02:07:10.401Z,6.70
2022-07-29T02:09:39.195Z,6.60
2022-07-29T02:12:08.433Z,6.80
2022-07-29T02:14:40.564Z,6.35
2022-07-29T02:17:08.779Z,6.25
2022-07-29T02:19:39.156Z,7.07
2022-07-29T02:22:08.149Z,5.97
2022-07-29T02:24:42.029Z,6.50
2022-07-29T02:27:16.689Z,6.28
2022-07-29T02:29:52.008Z,6.32
2022-07-29T02:32:31.619Z,6.03
2022-07-29T02:35:01.089Z,8.50
2022-07-29T02:37:30.272Z,35.53
2022-07-29T02:39:59.729Z,31.38
2022-07-29T02:42:29.174Z,25.73
2022-07-29T02:44:56.966Z,21.20
2022-07-29T02:47:42.737Z,16.73
2022-07-29T02:50:26.680Z,14.20
2022-07-29T02:53:25.841Z,10.10
2022-07-29T02:55:58.430Z,8.10
2022-07-29T02:58:30.406Z,7.25
2022-07-29T03:01:10.108Z,6.35
2022-07-29T03:03:39.307Z,5.90
2022-07-29T03:06:09.635Z,6.20
2022-07-29T03:08:58.888Z,5.05
2022-07-29T03:11:42.171Z,5.90
2022-07-29T03:14:21.046Z,6.85
2022-07-29T03:19:47.033Z,6.28
2022-07-29T03:22:15.361Z,6.30
2022-07-29T03:24:46.422Z,6.28
2022-07-29T03:27:14.488Z,6.50
2022-07-29T03:29:41.640Z,7.18
2022-07-29T03:32:17.569Z,6.60
2022-07-29T03:34:54.247Z,5.90
2022-07-29T03:37:24.509Z,6.30
2022-07-29T03:39:53.581Z,6.70
2022-07-29T03:42:25.275Z,6.78
2022-07-29T03:44:58.205Z,6.90
2022-07-29T03:47:49.580Z,6.60
2022-07-29T03:50:19.317Z,6.47
2022-07-29T03:52:47.239Z,6.05
2022-07-29T03:55:19.484Z,6.88
2022-07-29T03:57:55.692Z,7.20
2022-07-29T04:00:31.854Z,6.72
2022-07-29T04:03:10.661Z,7.07
2022-07-29T04:05:39.783Z,6.53
2022-07-29T04:08:07.478Z,6.35
2022-07-29T04:10:35.840Z,6.38
2022-07-29T04:13:03.582Z,6.45
2022-07-29T04:15:31.885Z,7.30
2022-07-29T04:18:00.249Z,6.85
2022-07-29T04:20:31.840Z,6.63
2022-07-29T04:25:26.219Z,7.25
2022-07-29T04:28:02.600Z,7.82
2022-07-29T04:30:32.359Z,7.60
2022-07-29T04:33:01.805Z,7.55
2022-07-29T04:35:30.243Z,8.20
2022-07-29T04:38:07.731Z,7.35
2022-07-29T04:40:43.123Z,7.75
2022-07-29T04:43:10.321Z,8.82
2022-07-29T04:45:47.441Z,9.13
2022-07-29T04:48:16.025Z,9.32
2022-07-29T04:50:47.314Z,9.30
2022-07-29T04:53:16.277Z,9.00
2022-07-29T04:55:43.375Z,9.48
2022-07-29T04:58:10.633Z,9.80
2022-07-29T05:00:42.039Z,9.77
2022-07-29T05:03:13.722Z,10.32
2022-07-29T05:05:41.958Z,9.25
2022-07-29T05:08:09.262Z,10.23
2022-07-29T05:10:39.147Z,9.07
2022-07-29T05:13:13.593Z,9.05
2022-07-29T05:15:40.939Z,7.28
2022-07-29T05:18:08.408Z,7.22
2022-07-29T05:20:36.073Z,8.63
2022-07-29T05:23:03.983Z,8.80
2022-07-29T05:25:43.471Z,8.75
2022-07-29T05:28:12.568Z,7.55
2022-07-29T05:30:39.914Z,7.68
2022-07-29T05:33:07.680Z,8.40
2022-07-29T05:35:36.108Z,8.32
2022-07-29T05:38:03.523Z,9.07
2022-07-29T05:40:30.838Z,8.68
2022-07-29T05:42:58.101Z,7.63
2022-07-29T05:45:25.559Z,7.32
2022-07-29T05:47:52.715Z,7.65
2022-07-29T05:50:20.064Z,7.40
2022-07-29T05:52:47.093Z,6.45
2022-07-29T05:55:17.231Z,6.55
2022-07-29T05:57:45.831Z,7.70
2022-07-29T06:00:13.433Z,7.55
2022-07-29T06:02:40.607Z,6.10
2022-07-29T06:05:15.585Z,5.55
2022-07-29T06:07:50.223Z,4.57
2022-07-29T06:10:20.298Z,4.97
2022-07-29T06:12:52.007Z,6.30
2022-07-29T06:15:19.666Z,5.22
2022-07-29T06:17:59.055Z,5.07
2022-07-29T06:22:58.638Z,4.40
2022-07-29T06:25:26.107Z,3.05
2022-07-29T06:27:53.780Z,3.92
2022-07-29T06:30:21.044Z,3.67
2022-07-29T06:32:48.439Z,3.97
2022-07-29T06:38:04.340Z,4.32
2022-07-29T06:41:03.049Z,4.82
2022-07-29T06:43:50.197Z,4.40
2022-07-29T06:46:20.339Z,5.40
2022-07-29T06:48:51.545Z,6.07
2022-07-29T06:51:21.778Z,6.20
2022-07-29T06:56:39.396Z,4.68
2022-07-29T06:59:09.514Z,5.05
2022-07-29T07:01:42.500Z,4.93
2022-07-29T07:04:12.338Z,4.90
2022-07-29T07:06:40.498Z,3.00
2022-07-29T07:09:08.560Z,3.22
2022-07-29T07:11:36.008Z,3.58
2022-07-29T07:14:04.402Z,2.72
2022-07-29T07:16:32.906Z,2.80
2022-07-29T07:19:01.070Z,3.47
2022-07-29T07:21:30.581Z,3.10
2022-07-29T07:23:59.254Z,3.47
2022-07-29T07:26:26.907Z,3.60
2022-07-29T07:28:56.808Z,2.95
2022-07-29T07:31:24.018Z,3.40
2022-07-29T07:33:52.736Z,3.35
2022-07-29T07:36:20.225Z,3.45
2022-07-29T07:38:47.600Z,3.47
2022-07-29T07:41:14.860Z,3.22
2022-07-29T07:43:42.306Z,2.58
2022-07-29T07:46:09.485Z,3.60
2022-07-29T07:48:37.270Z,3.10
2022-07-29T07:51:04.763Z,2.75
2022-07-29T07:53:32.639Z,2.80
2022-07-29T07:56:15.467Z,2.65
2022-07-29T07:58:42.829Z,2.75
2022-07-29T08:01:10.460Z,2.33
2022-07-29T08:03:38.246Z,2.42
2022-07-29T08:06:06.241Z,3.10
2022-07-29T08:08:33.702Z,2.78
2022-07-29T08:11:08.287Z,1.80
2022-07-29T08:13:37.540Z,2.70
2022-07-29T08:16:14.486Z,2.17
2022-07-29T08:18:43.425Z,2.10
2022-07-29T08:21:10.884Z,2.53
2022-07-29T08:24:00.758Z,1.73
2022-07-29T08:26:29.367Z,1.70
2022-07-29T08:28:56.807Z,2.20
2022-07-29T08:31:24.766Z,1.80
2022-07-29T08:33:52.234Z,2.03
2022-07-29T08:36:22.111Z,1.77
2022-07-29T08:38:50.618Z,1.80
2022-07-29T08:41:22.654Z,1.83
2022-07-29T08:43:51.171Z,1.80
2022-07-29T08:46:19.048Z,1.70
2022-07-29T08:48:46.828Z,1.50
2022-07-29T08:51:16.565Z,1.70
2022-07-29T08:53:45.734Z,2.10
2022-07-29T08:56:20.753Z,1.92
2022-07-29T08:58:53.503Z,1.83
2022-07-29T09:01:36.448Z,1.80
2022-07-29T09:04:14.272Z,1.98
2022-07-29T09:06:48.993Z,1.90
2022-07-29T09:09:16.813Z,2.30
2022-07-29T09:11:44.357Z,2.20
2022-07-29T09:14:15.375Z,2.95
2022-07-29T09:16:57.391Z,2.05
2022-07-29T09:19:27.769Z,2.30
2022-07-29T09:21:59.263Z,2.30
2022-07-29T09:24:45.269Z,2.20
2022-07-29T09:27:18.472Z,2.25
2022-07-29T09:29:45.899Z,2.40
2022-07-29T09:32:13.872Z,2.17
2022-07-29T09:34:42.282Z,2.47
2022-07-29T09:37:09.682Z,2.20
2022-07-29T09:39:45.303Z,1.88
2022-07-29T09:42:14.380Z,1.80
2022-07-29T09:44:49.983Z,2.10
2022-07-29T09:47:19.231Z,2.15
2022-07-29T09:49:59.416Z,1.60
2022-07-29T09:52:28.416Z,1.80
2022-07-29T09:55:06.928Z,1.90
2022-07-29T09:57:34.598Z,2.15
2022-07-29T10:00:06.417Z,1.80
2022-07-29T10:02:41.143Z,2.20
2022-07-29T10:05:19.878Z,2.30
2022-07-29T10:07:57.252Z,2.10
2022-07-29T10:10:31.433Z,2.00
2022-07-29T10:17:27.179Z,2.00
2022-07-29T10:19:54.762Z,2.40
2022-07-29T10:22:50.699Z,3.22
2022-07-29T10:25:11.256Z,2.00
2022-07-29T10:27:38.590Z,1.85
2022-07-29T10:30:07.170Z,1.80
2022-07-29T10:32:54.386Z,1.80
2022-07-29T10:35:50.754Z,1.75
2022-07-29T10:38:48.786Z,1.83
2022-07-29T10:42:13.447Z,2.10
2022-07-29T10:44:45.318Z,1.83
2022-07-29T10:47:27.235Z,1.95
2022-07-29T10:50:05.577Z,1.90
2022-07-29T10:52:53.734Z,1.90
2022-07-29T10:55:49.695Z,1.75
2022-07-29T10:58:24.859Z,1.80
2022-07-29T11:00:54.286Z,1.67
2022-07-29T11:03:50.371Z,1.70
2022-07-29T11:06:26.338Z,1.80
2022-07-29T11:09:34.755Z,2.08
2022-07-29T11:12:25.708Z,1.65
2022-07-29T11:15:02.748Z,1.73
2022-07-29T11:17:54.871Z,5.05
2022-07-29T11:20:39.461Z,2.00
2022-07-29T11:23:33.969Z,1.67
2022-07-29T11:26:12.869Z,1.63
2022-07-29T11:29:05.583Z,1.48
2022-07-29T11:31:42.841Z,1.73
2022-07-29T11:34:20.901Z,1.35
2022-07-29T11:37:13.841Z,1.90
2022-07-29T11:39:54.469Z,1.70
2022-07-29T11:42:32.564Z,1.45
2022-07-29T11:45:43.862Z,2.25
2022-07-29T11:48:05.216Z,1.50
2022-07-29T11:50:37.411Z,1.58
2022-07-29T11:53:13.553Z,1.70
2022-07-29T11:55:51.571Z,1.90
2022-07-29T11:58:26.227Z,2.00
2022-07-29T12:00:55.219Z,1.60
2022-07-29T12:03:33.530Z,2.63
2022-07-29T12:06:04.384Z,1.73
2022-07-29T12:08:42.033Z,1.90
2022-07-29T12:11:17.759Z,1.80
2022-07-29T12:13:49.422Z,1.88
2022-07-29T12:16:26.080Z,2.50
2022-07-29T12:19:03.010Z,1.60
2022-07-29T12:21:45.712Z,1.80
2022-07-29T12:24:22.768Z,1.52
2022-07-29T12:27:00.511Z,1.63
2022-07-29T12:29:34.869Z,1.60
2022-07-29T12:32:05.559Z,1.63
2022-07-29T12:34:33.827Z,1.58
2022-07-29T12:37:02.243Z,1.58
2022-07-29T12:39:30.376Z,1.30
2022-07-29T12:42:03.914Z,1.55
2022-07-29T12:44:52.493Z,3.30
2022-07-29T12:47:21.084Z,1.60
2022-07-29T12:49:50.936Z,1.80
2022-07-29T12:52:29.178Z,1.60
2022-07-29T12:54:57.113Z,1.77
2022-07-29T12:57:25.015Z,1.63
2022-07-29T13:00:23.256Z,1.80
2022-07-29T13:03:02.031Z,1.52
2022-07-29T13:05:54.840Z,2.10
2022-07-29T13:08:22.991Z,1.60
2022-07-29T13:10:50.819Z,1.45
2022-07-29T13:13:18.004Z,1.73
2022-07-29T13:15:50.026Z,1.70
2022-07-29T13:18:34.858Z,1.52
2022-07-29T13:21:14.106Z,1.50
2022-07-29T13:23:41.602Z,1.58
2022-07-29T13:26:10.444Z,1.60
2022-07-29T13:28:37.811Z,1.40
2022-07-29T13:31:06.412Z,1.30
2022-07-29T13:33:33.942Z,1.80
2022-07-29T13:36:02.415Z,1.55
2022-07-29T13:38:31.135Z,4.20
2022-07-29T13:40:59.451Z,2.22
2022-07-29T13:43:27.773Z,2.63
2022-07-29T13:45:55.371Z,1.60
2022-07-29T13:48:22.883Z,1.45
2022-07-29T13:50:50.777Z,1.60
2022-07-29T13:53:18.222Z,1.42
2022-07-29T13:55:50.513Z,1.42
2022-07-29T13:58:19.437Z,1.50
2022-07-29T14:00:48.028Z,1.88
2022-07-29T14:03:45.865Z,1.70
2022-07-29T14:06:16.430Z,1.88
2022-07-29T14:08:50.619Z,1.63
2022-07-29T14:11:24.148Z,1.70
2022-07-29T14:13:56.431Z,1.52
2022-07-29T14:16:24.050Z,1.40
2022-07-29T14:18:51.251Z,1.88
2022-07-29T14:21:18.627Z,1.45
2022-07-29T14:23:46.195Z,1.60
2022-07-29T14:26:15.917Z,1.80
2022-07-29T14:28:49.837Z,1.80
2022-07-29T14:31:18.080Z,1.60
2022-07-29T14:33:46.345Z,1.65
2022-07-29T14:36:18.960Z,1.80
2022-07-29T14:38:48.239Z,1.77
2022-07-29T14:41:15.623Z,1.50
2022-07-29T14:43:43.287Z,1.70
2022-07-29T14:46:10.700Z,2.00
2022-07-29T14:48:38.304Z,1.77
2022-07-29T14:51:06.700Z,1.80
2022-07-29T14:53:34.626Z,1.63
2022-07-29T14:56:15.357Z,1.80
2022-07-29T14:58:51.855Z,1.63
2022-07-29T15:01:19.688Z,1.50
2022-07-29T15:03:47.580Z,1.63
2022-07-29T15:06:15.445Z,1.80
2022-07-29T15:08:42.808Z,1.60
2022-07-29T15:11:09.995Z,1.40
2022-07-29T15:13:37.582Z,1.60
2022-07-29T15:16:06.541Z,1.35
2022-07-29T15:18:33.969Z,1.60
2022-07-29T15:21:03.189Z,1.48
2022-07-29T15:23:30.333Z,1.90
2022-07-29T15:25:58.185Z,1.92
2022-07-29T15:28:25.952Z,1.70
2022-07-29T15:30:53.961Z,1.60
2022-07-29T15:33:21.908Z,1.80
2022-07-29T15:35:49.867Z,1.70
2022-07-29T15:38:17.581Z,1.90
2022-07-29T15:40:45.471Z,1.65
2022-07-29T15:43:13.028Z,1.80
2022-07-29T15:46:03.711Z,1.40
2022-07-29T15:48:32.726Z,1.48
2022-07-29T15:51:01.441Z,1.65
2022-07-29T15:53:29.944Z,1.60
2022-07-29T15:55:57.412Z,1.80
2022-07-29T15:58:24.885Z,1.90
2022-07-29T16:00:52.332Z,1.45
2022-07-29T16:03:19.938Z,1.73
2022-07-29T16:05:47.208Z,1.92
2022-07-29T16:08:14.405Z,1.60
2022-07-29T16:10:41.922Z,1.60
2022-07-29T16:13:09.546Z,1.85
2022-07-29T16:15:36.702Z,1.63
2022-07-29T16:18:04.514Z,1.67
2022-07-29T16:20:32.344Z,1.83
2022-07-29T16:23:01.337Z,1.60
2022-07-29T16:25:50.293Z,1.70
2022-07-29T16:28:17.671Z,2.22
2022-07-29T16:30:45.713Z,1.80
2022-07-29T16:33:13.167Z,2.08
2022-07-29T16:35:42.313Z,1.40
2022-07-29T16:38:09.411Z,1.80
2022-07-29T16:40:37.073Z,1.83
2022-07-29T16:43:04.407Z,1.90
2022-07-29T16:45:45.374Z,1.58
2022-07-29T16:48:15.105Z,2.03
2022-07-29T16:50:45.794Z,1.70
2022-07-29T16:53:13.238Z,1.80
2022-07-29T16:55:41.985Z,1.98
2022-07-29T16:58:11.077Z,2.38
2022-07-29T17:00:39.018Z,2.55
2022-07-29T17:03:06.493Z,2.45
2022-07-29T17:05:53.400Z,2.47
2022-07-29T17:08:22.571Z,2.25
2022-07-29T17:10:50.290Z,2.13
2022-07-29T17:13:22.061Z,1.98
2022-07-29T17:15:51.789Z,2.40
2022-07-29T17:18:19.294Z,1.85
2022-07-29T17:20:46.973Z,2.13
2022-07-29T17:23:14.259Z,2.28
2022-07-29T17:25:41.639Z,2.13
2022-07-29T17:28:08.866Z,2.25
2022-07-29T17:30:36.674Z,2.40
2022-07-29T17:33:03.931Z,2.28
2022-07-29T17:35:49.883Z,2.08
2022-07-29T17:38:17.062Z,2.30
2022-07-29T17:40:44.344Z,2.03
2022-07-29T17:43:11.449Z,2.45
2022-07-29T17:45:48.771Z,1.88
2022-07-29T17:48:20.902Z,2.60
2022-07-29T17:50:48.662Z,2.17
2022-07-29T17:53:16.796Z,2.42
2022-07-29T17:55:48.929Z,2.05
2022-07-29T17:58:16.699Z,2.55
2022-07-29T18:00:43.921Z,2.53
2022-07-29T18:03:11.421Z,2.33
2022-07-29T18:05:38.736Z,2.30
2022-07-29T18:08:06.637Z,2.08
2022-07-29T18:10:34.231Z,2.55
2022-07-29T18:13:03.024Z,2.55
2022-07-29T18:15:31.161Z,2.55
2022-07-29T18:17:58.346Z,2.05
2022-07-29T18:20:26.892Z,2.20
2022-07-29T18:22:54.296Z,2.35
2022-07-29T18:25:22.237Z,1.80
2022-07-29T18:27:50.464Z,2.63
2022-07-29T18:30:17.707Z,2.00
2022-07-29T18:33:05.008Z,2.33
2022-07-29T18:35:33.011Z,2.50
2022-07-29T18:38:02.824Z,2.00
2022-07-29T18:40:31.132Z,2.23
2022-07-29T18:42:58.543Z,2.75
2022-07-29T18:45:28.586Z,2.70
2022-07-29T18:47:57.268Z,2.30
2022-07-29T18:50:29.508Z,3.08
2022-07-29T18:52:59.030Z,3.15
2022-07-29T18:55:26.719Z,2.45
2022-07-29T18:57:55.660Z,2.42
2022-07-29T19:00:24.710Z,2.28
2022-07-29T19:02:52.820Z,2.33
2022-07-29T19:05:20.599Z,2.10
2022-07-29T19:07:47.818Z,2.70
2022-07-29T19:10:14.999Z,2.25
2022-07-29T19:12:42.552Z,2.33
2022-07-29T19:15:10.736Z,1.98
2022-07-29T19:17:39.242Z,2.20
2022-07-29T19:20:07.899Z,2.58
2022-07-29T19:22:35.614Z,2.28
2022-07-29T19:25:03.066Z,2.85
2022-07-29T19:27:30.797Z,2.30
2022-07-29T19:29:59.519Z,2.10
2022-07-29T19:32:27.027Z,2.10
2022-07-29T19:35:12.645Z,2.10
2022-07-29T19:37:40.160Z,2.75
2022-07-29T19:40:07.781Z,2.22
2022-07-29T19:42:35.041Z,2.50
2022-07-29T19:45:02.279Z,2.22
2022-07-29T19:47:30.703Z,2.13
2022-07-29T19:49:57.975Z,2.00
2022-07-29T19:52:25.140Z,2.45
2022-07-29T19:54:52.666Z,2.65
2022-07-29T19:57:20.169Z,2.35
2022-07-29T19:59:47.350Z,2.70
2022-07-29T20:02:14.777Z,2.45
2022-07-29T20:04:53.561Z,2.65
2022-07-29T20:07:20.940Z,2.47
2022-07-29T20:09:49.387Z,2.92
2022-07-29T20:12:19.003Z,2.30
2022-07-29T20:14:46.721Z,2.78
2022-07-29T20:17:14.022Z,2.13
2022-07-29T20:19:42.748Z,2.70
2022-07-29T20:22:10.223Z,2.30
2022-07-29T20:24:38.033Z,2.28
2022-07-29T20:27:05.631Z,2.58
2022-07-29T20:29:41.308Z,2.53
2022-07-29T20:32:08.715Z,2.47
2022-07-29T20:34:36.107Z,3.10
2022-07-29T20:37:08.109Z,2.67
2022-07-29T20:39:35.341Z,3.15
2022-07-29T20:42:04.097Z,3.03
2022-07-29T20:44:31.478Z,3.03
2022-07-29T20:46:59.085Z,2.85
2022-07-29T20:49:26.796Z,2.75
2022-07-29T20:51:54.006Z,2.95
2022-07-29T20:54:21.174Z,3.38
2022-07-29T20:56:48.503Z,2.95
2022-07-29T20:59:17.287Z,2.97
2022-07-29T21:01:45.064Z,3.25
2022-07-29T21:04:12.382Z,3.33
2022-07-29T21:06:39.474Z,2.95
2022-07-29T21:09:07.044Z,3.05
2022-07-29T21:11:44.463Z,3.33
2022-07-29T21:14:24.167Z,3.65
2022-07-29T21:16:51.429Z,3.80
2022-07-29T21:19:18.645Z,3.40
2022-07-29T21:21:45.822Z,3.25
2022-07-29T21:24:13.179Z,3.33
2022-07-29T21:26:40.556Z,3.60
2022-07-29T21:29:08.426Z,4.30
2022-07-29T21:31:35.471Z,3.42
2022-07-29T21:34:02.691Z,3.70
2022-07-29T21:39:17.207Z,2.90
2022-07-29T21:41:44.465Z,3.80
2022-07-29T21:44:11.681Z,3.25
2022-07-29T21:46:38.986Z,3.28
2022-07-29T21:49:06.413Z,3.38
2022-07-29T21:51:33.690Z,3.22
2022-07-29T21:54:01.140Z,3.00
2022-07-29T21:56:29.703Z,3.75
2022-07-29T21:58:58.805Z,3.35
2022-07-29T22:01:26.040Z,3.40
2022-07-29T22:03:53.306Z,3.22
2022-07-29T22:06:20.725Z,3.50
2022-07-29T22:08:48.202Z,3.33
2022-07-29T22:11:15.836Z,3.70
2022-07-29T22:13:43.032Z,4.20
2022-07-29T22:16:14.927Z,4.22
2022-07-29T22:18:45.151Z,3.17
2022-07-29T22:21:13.270Z,4.05
2022-07-29T22:23:40.895Z,3.80
2022-07-29T22:26:08.710Z,3.80
2022-07-29T22:28:36.251Z,3.58
2022-07-29T22:31:07.809Z,3.75
2022-07-29T22:33:35.207Z,3.53
2022-07-29T22:36:02.394Z,3.35
2022-07-29T22:38:29.729Z,4.50
2022-07-29T22:41:00.664Z,4.55
2022-07-29T22:43:29.010Z,4.15
2022-07-29T22:45:56.285Z,4.68
2022-07-29T22:48:23.678Z,4.03
2022-07-29T22:50:51.862Z,3.15
2022-07-29T22:53:19.260Z,3.90
2022-07-29T22:55:46.414Z,3.95
2022-07-29T22:58:13.598Z,3.85
2022-07-29T23:00:41.389Z,3.75
2022-07-29T23:03:08.477Z,3.83
2022-07-29T23:05:36.275Z,3.88
2022-07-29T23:08:03.833Z,3.72
2022-07-29T23:10:31.110Z,3.85
2022-07-29T23:12:58.483Z,4.20
2022-07-29T23:15:26.034Z,3.83
2022-07-29T23:17:53.309Z,3.80
2022-07-29T23:20:20.567Z,4.00
2022-07-29T23:22:47.819Z,3.88
2022-07-29T23:25:15.003Z,3.65
2022-07-29T23:27:42.366Z,4.32
2022-07-29T23:30:10.137Z,3.90
2022-07-29T23:32:37.354Z,4.00
2022-07-29T23:35:05.717Z,4.18
2022-07-29T23:37:33.886Z,4.15
2022-07-29T23:40:00.965Z,4.38
2022-07-29T23:42:28.699Z,4.05
2022-07-29T23:44:55.849Z,3.95
2022-07-29T23:47:23.105Z,4.05
2022-07-29T23:49:50.357Z,4.40
2022-07-29T23:52:19.127Z,3.92
2022-07-29T23:54:46.439Z,3.90
2022-07-29T23:57:13.856Z,3.92
2022-07-29T23:59:41.175Z,3.88
